sensor_id;sensor_type;location;lat;lon;timestamp;P1;durP1;ratioP1;P2;durP2;ratioP2
23596;SDS011;40226;50.874;4.394;2024-01-30T00:01:21;10.32;;;6.30;;
23596;SDS011;40226;50.874;4.394;2024-01-30T00:03:47;11.00;;;6.22;;
23596;SDS011;40226;50.874;4.394;2024-01-30T00:06:13;11.73;;;6.70;;
23596;SDS011;40226;50.874;4.394;2024-01-30T00:08:38;12.60;;;6.78;;
23596;SDS011;40226;50.874;4.394;2024-01-30T00:11:04;10.93;;;6.70;;
23596;SDS011;40226;50.874;4.394;2024-01-30T00:13:30;11.68;;;7.05;;
23596;SDS011;40226;50.874;4.394;2024-01-30T00:15:55;12.82;;;6.97;;
23596;SDS011;40226;50.874;4.394;2024-01-30T00:18:21;11.85;;;6.88;;
23596;SDS011;40226;50.874;4.394;2024-01-30T00:20:47;12.70;;;6.90;;
23596;SDS011;40226;50.874;4.394;2024-01-30T00:23:12;10.77;;;7.15;;
23596;SDS011;40226;50.874;4.394;2024-01-30T00:25:38;14.73;;;7.22;;
23596;SDS011;40226;50.874;4.394;2024-01-30T00:28:04;12.75;;;6.65;;
23596;SDS011;40226;50.874;4.394;2024-01-30T00:30:29;11.27;;;7.30;;
23596;SDS011;40226;50.874;4.394;2024-01-30T00:32:55;10.98;;;6.82;;
23596;SDS011;40226;50.874;4.394;2024-01-30T00:35:21;13.45;;;7.18;;
23596;SDS011;40226;50.874;4.394;2024-01-30T00:37:47;9.57;;;6.55;;
23596;SDS011;40226;50.874;4.394;2024-01-30T00:40:13;11.30;;;6.57;;
23596;SDS011;40226;50.874;4.394;2024-01-30T00:42:43;12.13;;;6.32;;
23596;SDS011;40226;50.874;4.394;2024-01-30T00:45:13;12.35;;;6.60;;
23596;SDS011;40226;50.874;4.394;2024-01-30T00:47:39;12.13;;;6.25;;
23596;SDS011;40226;50.874;4.394;2024-01-30T00:50:05;11.00;;;6.75;;
23596;SDS011;40226;50.874;4.394;2024-01-30T00:52:31;12.07;;;6.85;;
23596;SDS011;40226;50.874;4.394;2024-01-30T00:54:58;8.15;;;6.05;;
23596;SDS011;40226;50.874;4.394;2024-01-30T00:57:24;11.75;;;6.40;;
23596;SDS011;40226;50.874;4.394;2024-01-30T00:59:49;12.75;;;7.18;;
23596;SDS011;40226;50.874;4.394;2024-01-30T01:02:15;11.70;;;6.88;;
23596;SDS011;40226;50.874;4.394;2024-01-30T01:04:42;9.38;;;6.18;;
23596;SDS011;40226;50.874;4.394;2024-01-30T01:07:09;12.38;;;6.10;;
23596;SDS011;40226;50.874;4.394;2024-01-30T01:09:35;9.35;;;6.30;;
23596;SDS011;40226;50.874;4.394;2024-01-30T01:12:01;12.45;;;6.80;;
23596;SDS011;40226;50.874;4.394;2024-01-30T01:14:27;12.02;;;6.60;;
23596;SDS011;40226;50.874;4.394;2024-01-30T01:16:53;10.65;;;6.78;;
23596;SDS011;40226;50.874;4.394;2024-01-30T01:19:18;10.25;;;5.90;;
23596;SDS011;40226;50.874;4.394;2024-01-30T01:21:44;9.23;;;6.00;;
23596;SDS011;40226;50.874;4.394;2024-01-30T01:24:09;11.95;;;5.97;;
23596;SDS011;40226;50.874;4.394;2024-01-30T01:26:35;10.52;;;6.00;;
23596;SDS011;40226;50.874;4.394;2024-01-30T01:29:01;8.65;;;6.25;;
23596;SDS011;40226;50.874;4.394;2024-01-30T01:31:26;9.48;;;5.93;;
23596;SDS011;40226;50.874;4.394;2024-01-30T01:33:54;10.32;;;6.05;;
23596;SDS011;40226;50.874;4.394;2024-01-30T01:36:20;10.57;;;6.18;;
23596;SDS011;40226;50.874;4.394;2024-01-30T01:38:46;11.63;;;6.53;;
23596;SDS011;40226;50.874;4.394;2024-01-30T01:41:11;9.20;;;5.70;;
23596;SDS011;40226;50.874;4.394;2024-01-30T01:43:37;10.63;;;6.07;;
23596;SDS011;40226;50.874;4.394;2024-01-30T01:46:04;11.27;;;6.07;;
23596;SDS011;40226;50.874;4.394;2024-01-30T01:48:31;9.35;;;5.15;;
23596;SDS011;40226;50.874;4.394;2024-01-30T01:50:58;12.15;;;6.75;;
23596;SDS011;40226;50.874;4.394;2024-01-30T01:53:24;9.98;;;6.03;;
23596;SDS011;40226;50.874;4.394;2024-01-30T01:55:50;12.38;;;5.85;;
23596;SDS011;40226;50.874;4.394;2024-01-30T01:58:18;13.25;;;5.88;;
23596;SDS011;40226;50.874;4.394;2024-01-30T02:00:46;11.95;;;6.55;;
23596;SDS011;40226;50.874;4.394;2024-01-30T02:03:12;8.55;;;5.30;;
23596;SDS011;40226;50.874;4.394;2024-01-30T02:05:43;13.50;;;6.50;;
23596;SDS011;40226;50.874;4.394;2024-01-30T02:08:09;11.25;;;5.57;;
23596;SDS011;40226;50.874;4.394;2024-01-30T02:10:34;11.43;;;6.47;;
23596;SDS011;40226;50.874;4.394;2024-01-30T02:13:00;9.85;;;5.55;;
23596;SDS011;40226;50.874;4.394;2024-01-30T02:15:26;11.38;;;6.13;;
23596;SDS011;40226;50.874;4.394;2024-01-30T02:17:51;11.20;;;6.72;;
23596;SDS011;40226;50.874;4.394;2024-01-30T02:20:17;9.55;;;5.90;;
23596;SDS011;40226;50.874;4.394;2024-01-30T02:22:42;12.50;;;6.50;;
23596;SDS011;40226;50.874;4.394;2024-01-30T02:25:08;11.05;;;6.50;;
23596;SDS011;40226;50.874;4.394;2024-01-30T02:27:34;12.25;;;6.50;;
23596;SDS011;40226;50.874;4.394;2024-01-30T02:30:00;8.80;;;5.60;;
23596;SDS011;40226;50.874;4.394;2024-01-30T02:32:25;12.50;;;6.70;;
23596;SDS011;40226;50.874;4.394;2024-01-30T02:34:51;8.73;;;6.22;;
23596;SDS011;40226;50.874;4.394;2024-01-30T02:37:16;10.32;;;5.93;;
23596;SDS011;40226;50.874;4.394;2024-01-30T02:39:42;13.13;;;6.25;;
23596;SDS011;40226;50.874;4.394;2024-01-30T02:42:07;11.27;;;6.38;;
23596;SDS011;40226;50.874;4.394;2024-01-30T02:44:33;13.20;;;6.22;;
23596;SDS011;40226;50.874;4.394;2024-01-30T02:46:59;20.20;;;6.75;;
23596;SDS011;40226;50.874;4.394;2024-01-30T02:49:24;10.40;;;5.75;;
23596;SDS011;40226;50.874;4.394;2024-01-30T02:51:51;11.10;;;6.28;;
23596;SDS011;40226;50.874;4.394;2024-01-30T02:54:16;11.05;;;6.05;;
23596;SDS011;40226;50.874;4.394;2024-01-30T02:56:42;12.43;;;6.07;;
23596;SDS011;40226;50.874;4.394;2024-01-30T02:59:07;10.50;;;6.30;;
23596;SDS011;40226;50.874;4.394;2024-01-30T03:01:33;13.75;;;6.47;;
23596;SDS011;40226;50.874;4.394;2024-01-30T03:04:06;12.48;;;6.75;;
23596;SDS011;40226;50.874;4.394;2024-01-30T03:06:32;11.38;;;6.43;;
23596;SDS011;40226;50.874;4.394;2024-01-30T03:08:58;11.57;;;6.00;;
23596;SDS011;40226;50.874;4.394;2024-01-30T03:11:23;12.52;;;6.88;;
23596;SDS011;40226;50.874;4.394;2024-01-30T03:13:49;11.98;;;5.93;;
23596;SDS011;40226;50.874;4.394;2024-01-30T03:16:14;13.82;;;6.60;;
23596;SDS011;40226;50.874;4.394;2024-01-30T03:18:40;13.20;;;7.03;;
23596;SDS011;40226;50.874;4.394;2024-01-30T03:21:05;13.25;;;7.10;;
23596;SDS011;40226;50.874;4.394;2024-01-30T03:23:31;12.73;;;5.75;;
23596;SDS011;40226;50.874;4.394;2024-01-30T03:25:57;12.20;;;6.53;;
23596;SDS011;40226;50.874;4.394;2024-01-30T03:28:23;13.75;;;7.50;;
23596;SDS011;40226;50.874;4.394;2024-01-30T03:30:48;15.13;;;7.60;;
23596;SDS011;40226;50.874;4.394;2024-01-30T03:33:14;11.40;;;6.95;;
23596;SDS011;40226;50.874;4.394;2024-01-30T03:35:39;9.43;;;6.20;;
23596;SDS011;40226;50.874;4.394;2024-01-30T03:38:05;12.65;;;6.85;;
23596;SDS011;40226;50.874;4.394;2024-01-30T03:40:30;10.90;;;6.72;;
23596;SDS011;40226;50.874;4.394;2024-01-30T03:42:56;11.07;;;6.35;;
23596;SDS011;40226;50.874;4.394;2024-01-30T03:45:21;13.52;;;6.80;;
23596;SDS011;40226;50.874;4.394;2024-01-30T03:47:47;12.48;;;7.07;;
23596;SDS011;40226;50.874;4.394;2024-01-30T03:50:12;12.90;;;6.55;;
23596;SDS011;40226;50.874;4.394;2024-01-30T03:52:38;12.18;;;6.80;;
23596;SDS011;40226;50.874;4.394;2024-01-30T03:55:04;12.43;;;6.78;;
23596;SDS011;40226;50.874;4.394;2024-01-30T03:57:30;13.15;;;6.57;;
23596;SDS011;40226;50.874;4.394;2024-01-30T03:59:55;12.10;;;7.15;;
23596;SDS011;40226;50.874;4.394;2024-01-30T04:02:21;11.93;;;6.55;;
23596;SDS011;40226;50.874;4.394;2024-01-30T04:04:46;12.52;;;6.50;;
23596;SDS011;40226;50.874;4.394;2024-01-30T04:07:12;11.02;;;6.93;;
23596;SDS011;40226;50.874;4.394;2024-01-30T04:09:38;12.43;;;6.88;;
23596;SDS011;40226;50.874;4.394;2024-01-30T04:12:03;10.88;;;6.70;;
23596;SDS011;40226;50.874;4.394;2024-01-30T04:14:29;12.13;;;7.45;;
23596;SDS011;40226;50.874;4.394;2024-01-30T04:16:55;12.15;;;7.30;;
23596;SDS011;40226;50.874;4.394;2024-01-30T04:19:20;12.25;;;7.63;;
23596;SDS011;40226;50.874;4.394;2024-01-30T04:21:46;11.18;;;6.68;;
23596;SDS011;40226;50.874;4.394;2024-01-30T04:24:11;14.77;;;7.18;;
23596;SDS011;40226;50.874;4.394;2024-01-30T04:26:37;13.75;;;7.47;;
23596;SDS011;40226;50.874;4.394;2024-01-30T04:29:02;11.85;;;7.43;;
23596;SDS011;40226;50.874;4.394;2024-01-30T04:31:28;15.85;;;6.78;;
23596;SDS011;40226;50.874;4.394;2024-01-30T04:33:53;13.15;;;7.18;;
23596;SDS011;40226;50.874;4.394;2024-01-30T04:36:19;16.63;;;7.28;;
23596;SDS011;40226;50.874;4.394;2024-01-30T04:38:45;13.60;;;7.60;;
23596;SDS011;40226;50.874;4.394;2024-01-30T04:41:10;11.77;;;6.97;;
23596;SDS011;40226;50.874;4.394;2024-01-30T04:43:36;11.27;;;7.10;;
23596;SDS011;40226;50.874;4.394;2024-01-30T04:46:01;13.80;;;7.30;;
23596;SDS011;40226;50.874;4.394;2024-01-30T04:48:27;14.52;;;7.22;;
23596;SDS011;40226;50.874;4.394;2024-01-30T04:50:52;15.07;;;7.07;;
23596;SDS011;40226;50.874;4.394;2024-01-30T04:53:18;13.20;;;7.03;;
23596;SDS011;40226;50.874;4.394;2024-01-30T04:55:44;9.27;;;6.40;;
23596;SDS011;40226;50.874;4.394;2024-01-30T04:58:09;12.95;;;7.07;;
23596;SDS011;40226;50.874;4.394;2024-01-30T05:00:35;12.88;;;7.18;;
23596;SDS011;40226;50.874;4.394;2024-01-30T05:03:00;14.25;;;7.80;;
23596;SDS011;40226;50.874;4.394;2024-01-30T05:05:26;12.90;;;7.65;;
23596;SDS011;40226;50.874;4.394;2024-01-30T05:07:51;10.10;;;6.90;;
23596;SDS011;40226;50.874;4.394;2024-01-30T05:10:17;11.85;;;7.63;;
23596;SDS011;40226;50.874;4.394;2024-01-30T05:12:43;13.68;;;7.88;;
23596;SDS011;40226;50.874;4.394;2024-01-30T05:15:08;12.23;;;7.45;;
23596;SDS011;40226;50.874;4.394;2024-01-30T05:17:34;13.13;;;7.75;;
23596;SDS011;40226;50.874;4.394;2024-01-30T05:20:00;12.65;;;6.80;;
23596;SDS011;40226;50.874;4.394;2024-01-30T05:22:25;16.83;;;7.10;;
23596;SDS011;40226;50.874;4.394;2024-01-30T05:24:51;9.93;;;6.40;;
23596;SDS011;40226;50.874;4.394;2024-01-30T05:27:16;13.20;;;7.60;;
23596;SDS011;40226;50.874;4.394;2024-01-30T05:29:42;12.55;;;6.97;;
23596;SDS011;40226;50.874;4.394;2024-01-30T05:32:07;12.80;;;7.90;;
23596;SDS011;40226;50.874;4.394;2024-01-30T05:34:33;12.55;;;7.18;;
23596;SDS011;40226;50.874;4.394;2024-01-30T05:37:00;14.45;;;7.30;;
23596;SDS011;40226;50.874;4.394;2024-01-30T05:39:26;12.52;;;7.55;;
23596;SDS011;40226;50.874;4.394;2024-01-30T05:41:52;13.77;;;7.43;;
23596;SDS011;40226;50.874;4.394;2024-01-30T05:44:17;17.20;;;7.43;;
23596;SDS011;40226;50.874;4.394;2024-01-30T05:46:43;17.00;;;7.63;;
23596;SDS011;40226;50.874;4.394;2024-01-30T05:49:08;14.40;;;7.70;;
23596;SDS011;40226;50.874;4.394;2024-01-30T05:51:34;15.40;;;8.00;;
23596;SDS011;40226;50.874;4.394;2024-01-30T05:54:00;13.13;;;7.65;;
23596;SDS011;40226;50.874;4.394;2024-01-30T05:56:28;14.55;;;7.68;;
23596;SDS011;40226;50.874;4.394;2024-01-30T05:58:54;11.82;;;7.57;;
23596;SDS011;40226;50.874;4.394;2024-01-30T06:01:20;15.00;;;7.32;;
23596;SDS011;40226;50.874;4.394;2024-01-30T06:03:45;11.15;;;6.82;;
23596;SDS011;40226;50.874;4.394;2024-01-30T06:06:11;12.38;;;7.88;;
23596;SDS011;40226;50.874;4.394;2024-01-30T06:08:37;12.88;;;8.30;;
23596;SDS011;40226;50.874;4.394;2024-01-30T06:11:02;15.35;;;7.18;;
23596;SDS011;40226;50.874;4.394;2024-01-30T06:13:28;13.00;;;8.15;;
23596;SDS011;40226;50.874;4.394;2024-01-30T06:15:56;13.25;;;7.93;;
23596;SDS011;40226;50.874;4.394;2024-01-30T06:18:22;13.02;;;7.97;;
23596;SDS011;40226;50.874;4.394;2024-01-30T06:20:48;13.90;;;7.38;;
23596;SDS011;40226;50.874;4.394;2024-01-30T06:23:14;14.38;;;7.30;;
23596;SDS011;40226;50.874;4.394;2024-01-30T06:25:40;18.25;;;8.38;;
23596;SDS011;40226;50.874;4.394;2024-01-30T06:28:05;17.63;;;7.22;;
23596;SDS011;40226;50.874;4.394;2024-01-30T06:30:31;12.90;;;8.30;;
23596;SDS011;40226;50.874;4.394;2024-01-30T06:32:56;15.63;;;8.05;;
23596;SDS011;40226;50.874;4.394;2024-01-30T06:35:22;12.55;;;8.02;;
23596;SDS011;40226;50.874;4.394;2024-01-30T06:37:48;14.38;;;8.55;;
23596;SDS011;40226;50.874;4.394;2024-01-30T06:40:13;13.50;;;8.00;;
23596;SDS011;40226;50.874;4.394;2024-01-30T06:42:39;15.20;;;8.43;;
23596;SDS011;40226;50.874;4.394;2024-01-30T06:45:05;19.35;;;8.20;;
23596;SDS011;40226;50.874;4.394;2024-01-30T06:47:31;14.90;;;8.40;;
23596;SDS011;40226;50.874;4.394;2024-01-30T06:49:57;13.35;;;8.05;;
23596;SDS011;40226;50.874;4.394;2024-01-30T06:52:22;15.32;;;8.52;;
23596;SDS011;40226;50.874;4.394;2024-01-30T06:54:48;14.75;;;8.18;;
23596;SDS011;40226;50.874;4.394;2024-01-30T06:57:14;14.38;;;8.80;;
23596;SDS011;40226;50.874;4.394;2024-01-30T06:59:39;13.15;;;8.15;;
23596;SDS011;40226;50.874;4.394;2024-01-30T07:02:09;18.25;;;9.07;;
23596;SDS011;40226;50.874;4.394;2024-01-30T07:04:35;13.95;;;8.00;;
23596;SDS011;40226;50.874;4.394;2024-01-30T07:07:02;13.50;;;8.48;;
23596;SDS011;40226;50.874;4.394;2024-01-30T07:09:30;12.73;;;8.55;;
23596;SDS011;40226;50.874;4.394;2024-01-30T07:11:55;14.05;;;8.10;;
23596;SDS011;40226;50.874;4.394;2024-01-30T07:14:23;14.02;;;8.82;;
23596;SDS011;40226;50.874;4.394;2024-01-30T07:16:49;17.17;;;9.27;;
23596;SDS011;40226;50.874;4.394;2024-01-30T07:19:15;16.60;;;8.95;;
23596;SDS011;40226;50.874;4.394;2024-01-30T07:21:41;14.30;;;8.95;;
23596;SDS011;40226;50.874;4.394;2024-01-30T07:24:07;16.23;;;9.40;;
23596;SDS011;40226;50.874;4.394;2024-01-30T07:26:32;16.98;;;8.82;;
23596;SDS011;40226;50.874;4.394;2024-01-30T07:28:58;16.02;;;8.95;;
23596;SDS011;40226;50.874;4.394;2024-01-30T07:31:23;17.58;;;8.65;;
23596;SDS011;40226;50.874;4.394;2024-01-30T07:33:49;19.63;;;9.18;;
23596;SDS011;40226;50.874;4.394;2024-01-30T07:36:14;18.30;;;9.98;;
23596;SDS011;40226;50.874;4.394;2024-01-30T07:38:40;17.10;;;9.13;;
23596;SDS011;40226;50.874;4.394;2024-01-30T07:41:05;18.80;;;8.63;;
23596;SDS011;40226;50.874;4.394;2024-01-30T07:43:31;16.27;;;8.63;;
23596;SDS011;40226;50.874;4.394;2024-01-30T07:45:58;17.70;;;9.48;;
23596;SDS011;40226;50.874;4.394;2024-01-30T07:48:25;19.45;;;8.48;;
23596;SDS011;40226;50.874;4.394;2024-01-30T07:50:52;16.42;;;8.55;;
23596;SDS011;40226;50.874;4.394;2024-01-30T07:53:18;17.52;;;9.32;;
23596;SDS011;40226;50.874;4.394;2024-01-30T07:55:46;17.65;;;8.98;;
23596;SDS011;40226;50.874;4.394;2024-01-30T07:58:12;17.50;;;10.00;;
23596;SDS011;40226;50.874;4.394;2024-01-30T08:00:38;15.70;;;8.57;;
23596;SDS011;40226;50.874;4.394;2024-01-30T08:03:04;19.98;;;9.30;;
23596;SDS011;40226;50.874;4.394;2024-01-30T08:05:30;21.90;;;10.18;;
23596;SDS011;40226;50.874;4.394;2024-01-30T08:07:56;19.70;;;9.50;;
23596;SDS011;40226;50.874;4.394;2024-01-30T08:10:21;23.00;;;9.30;;
23596;SDS011;40226;50.874;4.394;2024-01-30T08:12:47;19.48;;;9.40;;
23596;SDS011;40226;50.874;4.394;2024-01-30T08:15:13;25.77;;;9.88;;
23596;SDS011;40226;50.874;4.394;2024-01-30T08:17:38;19.50;;;9.23;;
23596;SDS011;40226;50.874;4.394;2024-01-30T08:20:04;21.65;;;9.93;;
23596;SDS011;40226;50.874;4.394;2024-01-30T08:22:31;26.30;;;10.85;;
23596;SDS011;40226;50.874;4.394;2024-01-30T08:24:56;20.45;;;10.43;;
23596;SDS011;40226;50.874;4.394;2024-01-30T08:27:22;21.70;;;9.93;;
23596;SDS011;40226;50.874;4.394;2024-01-30T08:29:48;18.60;;;9.25;;
23596;SDS011;40226;50.874;4.394;2024-01-30T08:32:15;19.45;;;10.18;;
23596;SDS011;40226;50.874;4.394;2024-01-30T08:34:40;20.80;;;10.25;;
23596;SDS011;40226;50.874;4.394;2024-01-30T08:37:06;26.38;;;9.95;;
23596;SDS011;40226;50.874;4.394;2024-01-30T08:39:32;19.00;;;9.63;;
23596;SDS011;40226;50.874;4.394;2024-01-30T08:41:58;19.25;;;9.68;;
23596;SDS011;40226;50.874;4.394;2024-01-30T08:44:23;23.50;;;10.35;;
23596;SDS011;40226;50.874;4.394;2024-01-30T08:46:49;22.40;;;10.85;;
23596;SDS011;40226;50.874;4.394;2024-01-30T08:49:19;19.58;;;9.82;;
23596;SDS011;40226;50.874;4.394;2024-01-30T08:51:45;21.92;;;9.95;;
23596;SDS011;40226;50.874;4.394;2024-01-30T08:54:12;22.23;;;10.75;;
23596;SDS011;40226;50.874;4.394;2024-01-30T08:56:37;24.52;;;11.07;;
23596;SDS011;40226;50.874;4.394;2024-01-30T08:59:03;25.25;;;10.48;;
23596;SDS011;40226;50.874;4.394;2024-01-30T09:01:29;29.15;;;11.02;;
23596;SDS011;40226;50.874;4.394;2024-01-30T09:03:54;23.75;;;10.35;;
23596;SDS011;40226;50.874;4.394;2024-01-30T09:06:20;21.75;;;10.13;;
23596;SDS011;40226;50.874;4.394;2024-01-30T09:08:45;19.95;;;9.80;;
23596;SDS011;40226;50.874;4.394;2024-01-30T09:11:11;23.10;;;9.77;;
23596;SDS011;40226;50.874;4.394;2024-01-30T09:13:38;24.15;;;9.85;;
23596;SDS011;40226;50.874;4.394;2024-01-30T09:16:04;18.33;;;9.48;;
23596;SDS011;40226;50.874;4.394;2024-01-30T09:18:30;22.00;;;9.93;;
23596;SDS011;40226;50.874;4.394;2024-01-30T09:20:55;20.77;;;9.43;;
23596;SDS011;40226;50.874;4.394;2024-01-30T09:23:21;25.65;;;9.93;;
23596;SDS011;40226;50.874;4.394;2024-01-30T09:25:47;24.60;;;10.98;;
23596;SDS011;40226;50.874;4.394;2024-01-30T09:28:12;20.50;;;10.52;;
23596;SDS011;40226;50.874;4.394;2024-01-30T09:30:38;20.63;;;10.25;;
23596;SDS011;40226;50.874;4.394;2024-01-30T09:33:04;26.67;;;10.85;;
23596;SDS011;40226;50.874;4.394;2024-01-30T09:35:31;27.00;;;11.32;;
23596;SDS011;40226;50.874;4.394;2024-01-30T09:37:57;27.50;;;11.40;;
23596;SDS011;40226;50.874;4.394;2024-01-30T09:40:23;24.30;;;11.57;;
23596;SDS011;40226;50.874;4.394;2024-01-30T09:42:52;24.73;;;11.18;;
23596;SDS011;40226;50.874;4.394;2024-01-30T09:45:20;22.17;;;11.57;;
23596;SDS011;40226;50.874;4.394;2024-01-30T09:47:49;26.42;;;11.27;;
23596;SDS011;40226;50.874;4.394;2024-01-30T09:50:15;29.02;;;10.65;;
23596;SDS011;40226;50.874;4.394;2024-01-30T09:52:41;20.58;;;11.10;;
23596;SDS011;40226;50.874;4.394;2024-01-30T09:55:11;23.73;;;11.32;;
23596;SDS011;40226;50.874;4.394;2024-01-30T09:57:37;23.10;;;11.90;;
23596;SDS011;40226;50.874;4.394;2024-01-30T10:00:03;27.00;;;12.45;;
23596;SDS011;40226;50.874;4.394;2024-01-30T10:02:31;28.10;;;12.18;;
23596;SDS011;40226;50.874;4.394;2024-01-30T10:04:57;25.67;;;13.10;;
23596;SDS011;40226;50.874;4.394;2024-01-30T10:07:23;32.95;;;12.98;;
23596;SDS011;40226;50.874;4.394;2024-01-30T10:09:48;25.67;;;12.57;;
23596;SDS011;40226;50.874;4.394;2024-01-30T10:12:15;31.40;;;13.25;;
23596;SDS011;40226;50.874;4.394;2024-01-30T10:14:41;25.55;;;12.40;;
23596;SDS011;40226;50.874;4.394;2024-01-30T10:17:12;28.70;;;13.80;;
23596;SDS011;40226;50.874;4.394;2024-01-30T10:19:38;26.35;;;12.77;;
23596;SDS011;40226;50.874;4.394;2024-01-30T10:22:06;34.83;;;12.70;;
23596;SDS011;40226;50.874;4.394;2024-01-30T10:24:33;32.55;;;13.77;;
23596;SDS011;40226;50.874;4.394;2024-01-30T10:26:59;29.88;;;13.93;;
23596;SDS011;40226;50.874;4.394;2024-01-30T10:29:25;31.30;;;14.27;;
23596;SDS011;40226;50.874;4.394;2024-01-30T10:31:58;32.80;;;15.05;;
23596;SDS011;40226;50.874;4.394;2024-01-30T10:34:27;32.50;;;15.50;;
23596;SDS011;40226;50.874;4.394;2024-01-30T10:37:01;29.20;;;15.38;;
23596;SDS011;40226;50.874;4.394;2024-01-30T10:39:37;30.15;;;15.15;;
23596;SDS011;40226;50.874;4.394;2024-01-30T10:42:04;33.67;;;15.18;;
23596;SDS011;40226;50.874;4.394;2024-01-30T10:44:36;30.50;;;15.23;;
23596;SDS011;40226;50.874;4.394;2024-01-30T10:47:36;26.08;;;15.30;;
23596;SDS011;40226;50.874;4.394;2024-01-30T10:50:02;29.52;;;15.55;;
23596;SDS011;40226;50.874;4.394;2024-01-30T10:52:28;26.52;;;13.32;;
23596;SDS011;40226;50.874;4.394;2024-01-30T10:54:55;26.17;;;12.68;;
23596;SDS011;40226;50.874;4.394;2024-01-30T10:57:24;25.85;;;10.68;;
23596;SDS011;40226;50.874;4.394;2024-01-30T10:59:58;26.42;;;12.07;;
23596;SDS011;40226;50.874;4.394;2024-01-30T11:04:55;23.23;;;11.43;;
23596;SDS011;40226;50.874;4.394;2024-01-30T11:09:52;23.15;;;9.90;;
23596;SDS011;40226;50.874;4.394;2024-01-30T11:12:22;23.27;;;9.55;;
23596;SDS011;40226;50.874;4.394;2024-01-30T11:14:48;12.85;;;5.85;;
23596;SDS011;40226;50.874;4.394;2024-01-30T11:17:15;7.47;;;3.13;;
23596;SDS011;40226;50.874;4.394;2024-01-30T11:19:41;8.07;;;2.40;;
23596;SDS011;40226;50.874;4.394;2024-01-30T11:22:07;9.40;;;2.55;;
23596;SDS011;40226;50.874;4.394;2024-01-30T11:24:39;9.98;;;2.78;;
23596;SDS011;40226;50.874;4.394;2024-01-30T11:27:08;7.03;;;2.75;;
23596;SDS011;40226;50.874;4.394;2024-01-30T11:29:37;7.05;;;2.50;;
23596;SDS011;40226;50.874;4.394;2024-01-30T11:32:05;14.02;;;2.58;;
23596;SDS011;40226;50.874;4.394;2024-01-30T11:34:30;11.25;;;2.58;;
23596;SDS011;40226;50.874;4.394;2024-01-30T11:36:59;9.65;;;2.40;;
23596;SDS011;40226;50.874;4.394;2024-01-30T11:39:34;8.75;;;2.13;;
23596;SDS011;40226;50.874;4.394;2024-01-30T11:42:01;5.28;;;1.63;;
23596;SDS011;40226;50.874;4.394;2024-01-30T11:44:29;5.20;;;1.52;;
23596;SDS011;40226;50.874;4.394;2024-01-30T11:46:55;5.78;;;1.45;;
23596;SDS011;40226;50.874;4.394;2024-01-30T11:49:21;9.45;;;1.50;;
23596;SDS011;40226;50.874;4.394;2024-01-30T11:51:48;7.80;;;1.50;;
23596;SDS011;40226;50.874;4.394;2024-01-30T11:54:14;10.18;;;1.48;;
23596;SDS011;40226;50.874;4.394;2024-01-30T11:56:41;6.00;;;1.70;;
23596;SDS011;40226;50.874;4.394;2024-01-30T11:59:08;8.57;;;1.90;;
23596;SDS011;40226;50.874;4.394;2024-01-30T12:01:33;5.15;;;1.60;;
23596;SDS011;40226;50.874;4.394;2024-01-30T12:03:59;3.22;;;1.30;;
23596;SDS011;40226;50.874;4.394;2024-01-30T12:06:25;10.18;;;1.60;;
23596;SDS011;40226;50.874;4.394;2024-01-30T12:08:56;6.25;;;1.40;;
23596;SDS011;40226;50.874;4.394;2024-01-30T12:11:25;6.32;;;1.55;;
23596;SDS011;40226;50.874;4.394;2024-01-30T12:13:52;4.20;;;1.65;;
23596;SDS011;40226;50.874;4.394;2024-01-30T12:16:18;6.32;;;1.77;;
23596;SDS011;40226;50.874;4.394;2024-01-30T12:18:45;7.47;;;1.77;;
23596;SDS011;40226;50.874;4.394;2024-01-30T12:21:11;5.18;;;1.50;;
23596;SDS011;40226;50.874;4.394;2024-01-30T12:23:36;5.15;;;1.40;;
23596;SDS011;40226;50.874;4.394;2024-01-30T12:26:02;6.57;;;1.38;;
23596;SDS011;40226;50.874;4.394;2024-01-30T12:28:32;5.80;;;1.65;;
23596;SDS011;40226;50.874;4.394;2024-01-30T12:31:01;4.53;;;1.13;;
23596;SDS011;40226;50.874;4.394;2024-01-30T12:33:28;7.30;;;1.30;;
23596;SDS011;40226;50.874;4.394;2024-01-30T12:35:54;7.13;;;1.60;;
23596;SDS011;40226;50.874;4.394;2024-01-30T12:38:20;5.00;;;1.20;;
23596;SDS011;40226;50.874;4.394;2024-01-30T12:40:45;10.05;;;1.40;;
23596;SDS011;40226;50.874;4.394;2024-01-30T12:43:13;11.52;;;1.42;;
23596;SDS011;40226;50.874;4.394;2024-01-30T12:45:39;10.18;;;1.10;;
23596;SDS011;40226;50.874;4.394;2024-01-30T12:48:06;4.35;;;1.25;;
23596;SDS011;40226;50.874;4.394;2024-01-30T12:50:32;7.10;;;1.20;;
23596;SDS011;40226;50.874;4.394;2024-01-30T12:52:57;7.18;;;1.45;;
23596;SDS011;40226;50.874;4.394;2024-01-30T12:55:23;6.20;;;1.50;;
23596;SDS011;40226;50.874;4.394;2024-01-30T12:57:50;11.80;;;1.77;;
23596;SDS011;40226;50.874;4.394;2024-01-30T13:00:15;6.32;;;1.80;;
23596;SDS011;40226;50.874;4.394;2024-01-30T13:02:42;11.35;;;1.27;;
23596;SDS011;40226;50.874;4.394;2024-01-30T13:05:10;6.70;;;1.67;;
23596;SDS011;40226;50.874;4.394;2024-01-30T13:07:35;6.40;;;1.85;;
23596;SDS011;40226;50.874;4.394;2024-01-30T13:10:02;5.53;;;1.52;;
23596;SDS011;40226;50.874;4.394;2024-01-30T13:12:28;5.80;;;1.48;;
23596;SDS011;40226;50.874;4.394;2024-01-30T13:14:54;8.43;;;1.58;;
23596;SDS011;40226;50.874;4.394;2024-01-30T13:17:20;14.23;;;2.00;;
23596;SDS011;40226;50.874;4.394;2024-01-30T13:19:45;6.88;;;1.77;;
23596;SDS011;40226;50.874;4.394;2024-01-30T13:22:11;9.07;;;1.85;;
23596;SDS011;40226;50.874;4.394;2024-01-30T13:24:36;8.15;;;1.63;;
23596;SDS011;40226;50.874;4.394;2024-01-30T13:27:02;12.60;;;1.98;;
23596;SDS011;40226;50.874;4.394;2024-01-30T13:29:30;12.15;;;2.13;;
23596;SDS011;40226;50.874;4.394;2024-01-30T13:31:56;7.93;;;1.80;;
23596;SDS011;40226;50.874;4.394;2024-01-30T13:34:22;10.32;;;1.70;;
23596;SDS011;40226;50.874;4.394;2024-01-30T13:36:47;6.18;;;1.75;;
23596;SDS011;40226;50.874;4.394;2024-01-30T13:39:14;7.85;;;1.40;;
23596;SDS011;40226;50.874;4.394;2024-01-30T13:41:41;6.15;;;1.92;;
23596;SDS011;40226;50.874;4.394;2024-01-30T13:44:07;8.50;;;2.00;;
23596;SDS011;40226;50.874;4.394;2024-01-30T13:46:34;4.38;;;1.33;;
23596;SDS011;40226;50.874;4.394;2024-01-30T13:49:00;7.03;;;1.55;;
23596;SDS011;40226;50.874;4.394;2024-01-30T13:51:26;4.72;;;1.30;;
23596;SDS011;40226;50.874;4.394;2024-01-30T13:53:52;6.22;;;1.20;;
23596;SDS011;40226;50.874;4.394;2024-01-30T13:56:19;8.85;;;1.50;;
23596;SDS011;40226;50.874;4.394;2024-01-30T13:58:46;6.95;;;1.60;;
23596;SDS011;40226;50.874;4.394;2024-01-30T14:01:14;4.15;;;1.63;;
23596;SDS011;40226;50.874;4.394;2024-01-30T14:03:39;6.80;;;1.85;;
23596;SDS011;40226;50.874;4.394;2024-01-30T14:06:05;10.02;;;1.70;;
23596;SDS011;40226;50.874;4.394;2024-01-30T14:08:31;3.70;;;1.20;;
23596;SDS011;40226;50.874;4.394;2024-01-30T14:10:57;10.32;;;1.67;;
23596;SDS011;40226;50.874;4.394;2024-01-30T14:13:23;8.02;;;2.08;;
23596;SDS011;40226;50.874;4.394;2024-01-30T14:15:50;7.60;;;2.00;;
23596;SDS011;40226;50.874;4.394;2024-01-30T14:18:19;6.50;;;1.88;;
23596;SDS011;40226;50.874;4.394;2024-01-30T14:20:45;7.15;;;1.70;;
23596;SDS011;40226;50.874;4.394;2024-01-30T14:23:11;6.07;;;1.92;;
23596;SDS011;40226;50.874;4.394;2024-01-30T14:25:36;10.52;;;1.90;;
23596;SDS011;40226;50.874;4.394;2024-01-30T14:28:02;5.05;;;1.58;;
23596;SDS011;40226;50.874;4.394;2024-01-30T14:30:28;4.05;;;1.17;;
23596;SDS011;40226;50.874;4.394;2024-01-30T14:32:54;4.43;;;1.50;;
23596;SDS011;40226;50.874;4.394;2024-01-30T14:35:21;5.38;;;2.13;;